sensor_id;sensor_type;location;lat;lon;timestamp;temperature;humidity
44170;DHT22;29836;52.286;9.576;2022-12-05T00:01:31;0.80;99.90
44170;DHT22;29836;52.286;9.576;2022-12-05T00:04:01;0.90;99.90
44170;DHT22;29836;52.286;9.576;2022-12-05T00:06:29;0.90;99.90
44170;DHT22;29836;52.286;9.576;2022-12-05T00:08:55;0.90;99.90
44170;DHT22;29836;52.286;9.576;2022-12-05T00:11:24;0.90;99.90
44170;DHT22;29836;52.286;9.576;2022-12-05T00:13:52;0.80;99.90
44170;DHT22;29836;52.286;9.576;2022-12-05T00:16:20;0.90;99.90
44170;DHT22;29836;52.286;9.576;2022-12-05T00:18:46;0.90;99.90
44170;DHT22;29836;52.286;9.576;2022-12-05T00:21:15;0.90;99.90
44170;DHT22;29836;52.286;9.576;2022-12-05T00:23:41;0.90;99.90
44170;DHT22;29836;52.286;9.576;2022-12-05T00:26:07;0.90;99.90
44170;DHT22;29836;52.286;9.576;2022-12-05T00:28:33;0.90;99.90
44170;DHT22;29836;52.286;9.576;2022-12-05T00:31:03;0.90;99.90
44170;DHT22;29836;52.286;9.576;2022-12-05T00:33:29;0.90;99.90
44170;DHT22;29836;52.286;9.576;2022-12-05T00:35:59;0.90;99.90
44170;DHT22;29836;52.286;9.576;2022-12-05T00:38:25;0.90;99.90
44170;DHT22;29836;52.286;9.576;2022-12-05T00:40:50;0.90;99.90
44170;DHT22;29836;52.286;9.576;2022-12-05T00:43:16;0.90;99.90
44170;DHT22;29836;52.286;9.576;2022-12-05T00:45:41;0.90;99.90
44170;DHT22;29836;52.286;9.576;2022-12-05T00:48:07;0.90;99.90
44170;DHT22;29836;52.286;9.576;2022-12-05T00:50:32;0.90;99.90
44170;DHT22;29836;52.286;9.576;2022-12-05T00:52:58;1.00;99.90
44170;DHT22;29836;52.286;9.576;2022-12-05T00:55:23;0.90;99.90
44170;DHT22;29836;52.286;9.576;2022-12-05T00:57:49;0.90;99.90
44170;DHT22;29836;52.286;9.576;2022-12-05T01:00:15;0.90;99.90
44170;DHT22;29836;52.286;9.576;2022-12-05T01:02:41;0.90;99.90
44170;DHT22;29836;52.286;9.576;2022-12-05T01:05:06;0.90;99.90
44170;DHT22;29836;52.286;9.576;2022-12-05T01:07:32;0.90;99.90
44170;DHT22;29836;52.286;9.576;2022-12-05T01:09:58;0.90;99.90
44170;DHT22;29836;52.286;9.576;2022-12-05T01:12:23;1.00;99.90
44170;DHT22;29836;52.286;9.576;2022-12-05T01:14:49;0.90;99.90
44170;DHT22;29836;52.286;9.576;2022-12-05T01:17:14;0.90;99.90
44170;DHT22;29836;52.286;9.576;2022-12-05T01:19:40;1.00;99.90
44170;DHT22;29836;52.286;9.576;2022-12-05T01:22:05;0.90;99.90
44170;DHT22;29836;52.286;9.576;2022-12-05T01:24:31;1.00;99.90
44170;DHT22;29836;52.286;9.576;2022-12-05T01:26:56;1.00;99.90
44170;DHT22;29836;52.286;9.576;2022-12-05T01:29:23;1.00;99.90
44170;DHT22;29836;52.286;9.576;2022-12-05T01:31:49;1.00;99.90
44170;DHT22;29836;52.286;9.576;2022-12-05T01:34:16;1.00;99.90
44170;DHT22;29836;52.286;9.576;2022-12-05T01:36:42;1.00;99.90
44170;DHT22;29836;52.286;9.576;2022-12-05T01:39:09;1.00;99.90
44170;DHT22;29836;52.286;9.576;2022-12-05T01:41:41;1.00;99.90
44170;DHT22;29836;52.286;9.576;2022-12-05T01:46:54;1.00;99.90
44170;DHT22;29836;52.286;9.576;2022-12-05T01:51:51;1.00;99.90
44170;DHT22;29836;52.286;9.576;2022-12-05T01:54:19;1.00;99.90
44170;DHT22;29836;52.286;9.576;2022-12-05T01:56:49;1.00;99.90
44170;DHT22;29836;52.286;9.576;2022-12-05T01:59:16;1.00;99.90
44170;DHT22;29836;52.286;9.576;2022-12-05T02:01:42;1.00;99.90
44170;DHT22;29836;52.286;9.576;2022-12-05T02:04:09;1.10;99.90
44170;DHT22;29836;52.286;9.576;2022-12-05T02:06:35;1.00;99.90
44170;DHT22;29836;52.286;9.576;2022-12-05T02:09:00;1.00;99.90
44170;DHT22;29836;52.286;9.576;2022-12-05T02:11:28;1.00;99.90
44170;DHT22;29836;52.286;9.576;2022-12-05T02:16:33;1.00;99.90
44170;DHT22;29836;52.286;9.576;2022-12-05T02:30:39;1.00;99.90
44170;DHT22;29836;52.286;9.576;2022-12-05T02:36:01;1.10;99.90
44170;DHT22;29836;52.286;9.576;2022-12-05T02:38:52;1.10;99.90
44170;DHT22;29836;52.286;9.576;2022-12-05T02:41:40;1.10;99.90
44170;DHT22;29836;52.286;9.576;2022-12-05T02:44:20;1.00;99.90
44170;DHT22;29836;52.286;9.576;2022-12-05T02:46:47;1.00;99.90
44170;DHT22;29836;52.286;9.576;2022-12-05T02:49:21;1.10;99.90
44170;DHT22;29836;52.286;9.576;2022-12-05T02:51:52;1.10;99.90
44170;DHT22;29836;52.286;9.576;2022-12-05T02:54:23;1.00;99.90
44170;DHT22;29836;52.286;9.576;2022-12-05T02:56:51;1.00;99.90
44170;DHT22;29836;52.286;9.576;2022-12-05T02:59:17;1.00;99.90
44170;DHT22;29836;52.286;9.576;2022-12-05T03:01:44;1.00;99.90
44170;DHT22;29836;52.286;9.576;2022-12-05T03:04:11;1.00;99.90
44170;DHT22;29836;52.286;9.576;2022-12-05T03:06:42;1.00;99.90
44170;DHT22;29836;52.286;9.576;2022-12-05T03:09:38;1.10;99.90
44170;DHT22;29836;52.286;9.576;2022-12-05T03:12:27;1.00;99.90
44170;DHT22;29836;52.286;9.576;2022-12-05T03:15:33;1.10;99.90
44170;DHT22;29836;52.286;9.576;2022-12-05T03:18:24;1.00;99.90
44170;DHT22;29836;52.286;9.576;2022-12-05T03:20:53;1.10;99.90
44170;DHT22;29836;52.286;9.576;2022-12-05T03:23:33;1.00;99.90
44170;DHT22;29836;52.286;9.576;2022-12-05T03:26:05;1.00;99.90
44170;DHT22;29836;52.286;9.576;2022-12-05T03:28:48;1.10;99.90
44170;DHT22;29836;52.286;9.576;2022-12-05T03:31:23;1.10;99.90
44170;DHT22;29836;52.286;9.576;2022-12-05T03:33:56;1.10;99.90
44170;DHT22;29836;52.286;9.576;2022-12-05T03:36:31;1.10;99.90
44170;DHT22;29836;52.286;9.576;2022-12-05T03:39:17;1.10;99.90
44170;DHT22;29836;52.286;9.576;2022-12-05T03:47:02;1.10;99.90
44170;DHT22;29836;52.286;9.576;2022-12-05T03:49:33;1.10;99.90
44170;DHT22;29836;52.286;9.576;2022-12-05T03:52:13;1.10;99.90
44170;DHT22;29836;52.286;9.576;2022-12-05T03:54:44;1.10;99.90
44170;DHT22;29836;52.286;9.576;2022-12-05T03:57:19;1.10;99.90
44170;DHT22;29836;52.286;9.576;2022-12-05T03:59:59;1.10;99.90
44170;DHT22;29836;52.286;9.576;2022-12-05T04:02:38;1.10;99.90
44170;DHT22;29836;52.286;9.576;2022-12-05T04:05:51;1.10;99.90
44170;DHT22;29836;52.286;9.576;2022-12-05T04:08:17;1.10;99.90
44170;DHT22;29836;52.286;9.576;2022-12-05T04:10:47;1.10;99.90
44170;DHT22;29836;52.286;9.576;2022-12-05T04:13:21;1.10;99.90
44170;DHT22;29836;52.286;9.576;2022-12-05T04:15:54;1.10;99.90
44170;DHT22;29836;52.286;9.576;2022-12-05T04:18:46;1.10;99.90
44170;DHT22;29836;52.286;9.576;2022-12-05T04:21:15;1.10;99.90
44170;DHT22;29836;52.286;9.576;2022-12-05T04:24:01;1.10;99.90
44170;DHT22;29836;52.286;9.576;2022-12-05T04:26:47;1.10;99.90
44170;DHT22;29836;52.286;9.576;2022-12-05T04:29:21;1.10;99.90
44170;DHT22;29836;52.286;9.576;2022-12-05T04:31:53;1.10;99.90
44170;DHT22;29836;52.286;9.576;2022-12-05T04:34:22;1.10;99.90
44170;DHT22;29836;52.286;9.576;2022-12-05T04:37:10;1.20;99.90
44170;DHT22;29836;52.286;9.576;2022-12-05T04:39:47;1.10;99.90
44170;DHT22;29836;52.286;9.576;2022-12-05T04:42:18;1.10;99.90
44170;DHT22;29836;52.286;9.576;2022-12-05T04:45:02;1.10;99.90
44170;DHT22;29836;52.286;9.576;2022-12-05T04:47:33;1.10;99.90
44170;DHT22;29836;52.286;9.576;2022-12-05T04:50:00;1.10;99.90
44170;DHT22;29836;52.286;9.576;2022-12-05T04:52:28;1.10;99.90
44170;DHT22;29836;52.286;9.576;2022-12-05T04:55:01;1.10;99.90
44170;DHT22;29836;52.286;9.576;2022-12-05T04:57:36;1.10;99.90
44170;DHT22;29836;52.286;9.576;2022-12-05T05:00:05;1.10;99.90
44170;DHT22;29836;52.286;9.576;2022-12-05T05:02:46;1.10;99.90
44170;DHT22;29836;52.286;9.576;2022-12-05T05:05:14;1.10;99.90
44170;DHT22;29836;52.286;9.576;2022-12-05T05:07:48;1.10;99.90
44170;DHT22;29836;52.286;9.576;2022-12-05T05:10:17;1.10;99.90
44170;DHT22;29836;52.286;9.576;2022-12-05T05:12:44;1.10;99.90
44170;DHT22;29836;52.286;9.576;2022-12-05T05:15:09;1.10;99.90
44170;DHT22;29836;52.286;9.576;2022-12-05T05:17:35;1.10;99.90
44170;DHT22;29836;52.286;9.576;2022-12-05T05:20:00;1.10;99.90
44170;DHT22;29836;52.286;9.576;2022-12-05T05:22:47;1.10;99.90
44170;DHT22;29836;52.286;9.576;2022-12-05T05:25:13;1.10;99.90
44170;DHT22;29836;52.286;9.576;2022-12-05T05:27:39;1.10;99.90
44170;DHT22;29836;52.286;9.576;2022-12-05T05:30:05;1.10;99.90
44170;DHT22;29836;52.286;9.576;2022-12-05T05:32:33;1.10;99.90
44170;DHT22;29836;52.286;9.576;2022-12-05T05:34:59;1.10;99.90
44170;DHT22;29836;52.286;9.576;2022-12-05T05:37:24;1.10;99.90
44170;DHT22;29836;52.286;9.576;2022-12-05T05:39:50;1.10;99.90
44170;DHT22;29836;52.286;9.576;2022-12-05T05:42:15;1.10;99.90
44170;DHT22;29836;52.286;9.576;2022-12-05T05:44:41;1.00;99.90
44170;DHT22;29836;52.286;9.576;2022-12-05T05:47:06;1.00;99.90
44170;DHT22;29836;52.286;9.576;2022-12-05T05:49:32;1.00;99.90
44170;DHT22;29836;52.286;9.576;2022-12-05T05:51:57;1.00;99.90
44170;DHT22;29836;52.286;9.576;2022-12-05T05:54:23;1.00;99.90
44170;DHT22;29836;52.286;9.576;2022-12-05T05:56:48;1.00;99.90
44170;DHT22;29836;52.286;9.576;2022-12-05T05:59:14;0.90;99.90
44170;DHT22;29836;52.286;9.576;2022-12-05T06:01:40;0.90;99.90
44170;DHT22;29836;52.286;9.576;2022-12-05T06:04:05;0.90;99.90
44170;DHT22;29836;52.286;9.576;2022-12-05T06:06:32;0.90;99.90
44170;DHT22;29836;52.286;9.576;2022-12-05T06:08:57;0.90;99.90
44170;DHT22;29836;52.286;9.576;2022-12-05T06:11:25;0.90;99.90
44170;DHT22;29836;52.286;9.576;2022-12-05T06:13:51;0.90;99.90
44170;DHT22;29836;52.286;9.576;2022-12-05T06:16:18;0.90;99.90
44170;DHT22;29836;52.286;9.576;2022-12-05T06:18:45;0.80;99.90
44170;DHT22;29836;52.286;9.576;2022-12-05T06:21:10;0.90;99.90
44170;DHT22;29836;52.286;9.576;2022-12-05T06:23:37;0.90;99.90
44170;DHT22;29836;52.286;9.576;2022-12-05T06:26:04;0.90;99.90
44170;DHT22;29836;52.286;9.576;2022-12-05T06:28:30;0.90;99.90
44170;DHT22;29836;52.286;9.576;2022-12-05T06:30:56;0.90;99.90
44170;DHT22;29836;52.286;9.576;2022-12-05T06:33:22;0.90;99.90
44170;DHT22;29836;52.286;9.576;2022-12-05T06:35:48;0.90;99.90
44170;DHT22;29836;52.286;9.576;2022-12-05T06:38:14;0.90;99.90
44170;DHT22;29836;52.286;9.576;2022-12-05T06:40:40;0.90;99.90
44170;DHT22;29836;52.286;9.576;2022-12-05T06:43:06;0.90;99.90
44170;DHT22;29836;52.286;9.576;2022-12-05T06:45:32;0.90;99.90
44170;DHT22;29836;52.286;9.576;2022-12-05T06:47:58;0.90;99.90
44170;DHT22;29836;52.286;9.576;2022-12-05T06:50:23;0.90;99.90
44170;DHT22;29836;52.286;9.576;2022-12-05T06:52:50;0.90;99.90
44170;DHT22;29836;52.286;9.576;2022-12-05T06:55:15;0.90;99.90
44170;DHT22;29836;52.286;9.576;2022-12-05T06:57:41;0.90;99.90
44170;DHT22;29836;52.286;9.576;2022-12-05T07:00:07;0.90;99.90
44170;DHT22;29836;52.286;9.576;2022-12-05T07:02:52;0.90;99.90
44170;DHT22;29836;52.286;9.576;2022-12-05T07:05:18;0.90;99.90
44170;DHT22;29836;52.286;9.576;2022-12-05T07:07:44;0.90;99.90
44170;DHT22;29836;52.286;9.576;2022-12-05T07:10:11;0.90;99.90
44170;DHT22;29836;52.286;9.576;2022-12-05T07:12:36;0.80;99.90
44170;DHT22;29836;52.286;9.576;2022-12-05T07:15:02;0.80;99.90
44170;DHT22;29836;52.286;9.576;2022-12-05T07:17:28;0.80;99.90
44170;DHT22;29836;52.286;9.576;2022-12-05T07:19:54;0.70;99.90
44170;DHT22;29836;52.286;9.576;2022-12-05T07:22:21;0.60;99.90
44170;DHT22;29836;52.286;9.576;2022-12-05T07:24:47;0.60;99.90
44170;DHT22;29836;52.286;9.576;2022-12-05T07:27:14;0.50;99.90
44170;DHT22;29836;52.286;9.576;2022-12-05T07:29:40;0.40;99.90
44170;DHT22;29836;52.286;9.576;2022-12-05T07:32:06;0.40;99.90
44170;DHT22;29836;52.286;9.576;2022-12-05T07:34:31;0.40;99.90
44170;DHT22;29836;52.286;9.576;2022-12-05T07:36:57;0.40;99.90
44170;DHT22;29836;52.286;9.576;2022-12-05T07:39:23;0.40;99.90
44170;DHT22;29836;52.286;9.576;2022-12-05T07:41:48;0.40;99.90
44170;DHT22;29836;52.286;9.576;2022-12-05T07:44:14;0.40;99.90
44170;DHT22;29836;52.286;9.576;2022-12-05T07:46:39;0.40;99.90
44170;DHT22;29836;52.286;9.576;2022-12-05T07:49:06;0.40;99.90
44170;DHT22;29836;52.286;9.576;2022-12-05T07:51:32;0.40;99.90
44170;DHT22;29836;52.286;9.576;2022-12-05T07:53:58;0.50;99.90
44170;DHT22;29836;52.286;9.576;2022-12-05T07:56:24;0.50;99.90
44170;DHT22;29836;52.286;9.576;2022-12-05T07:58:50;0.50;99.90
44170;DHT22;29836;52.286;9.576;2022-12-05T08:01:19;0.50;99.90
44170;DHT22;29836;52.286;9.576;2022-12-05T08:03:46;0.50;99.90
44170;DHT22;29836;52.286;9.576;2022-12-05T08:06:17;0.70;99.90
44170;DHT22;29836;52.286;9.576;2022-12-05T08:08:44;0.80;99.90
44170;DHT22;29836;52.286;9.576;2022-12-05T08:11:14;0.80;99.90
44170;DHT22;29836;52.286;9.576;2022-12-05T08:13:41;0.80;99.90
44170;DHT22;29836;52.286;9.576;2022-12-05T08:16:10;0.80;99.90
44170;DHT22;29836;52.286;9.576;2022-12-05T08:18:36;0.80;99.90
44170;DHT22;29836;52.286;9.576;2022-12-05T08:21:06;0.70;99.90
44170;DHT22;29836;52.286;9.576;2022-12-05T08:23:32;0.80;99.90
44170;DHT22;29836;52.286;9.576;2022-12-05T08:26:03;0.80;99.90
44170;DHT22;29836;52.286;9.576;2022-12-05T08:28:29;0.70;99.90
44170;DHT22;29836;52.286;9.576;2022-12-05T08:30:55;0.70;99.90
44170;DHT22;29836;52.286;9.576;2022-12-05T08:33:20;0.80;99.90
44170;DHT22;29836;52.286;9.576;2022-12-05T08:35:46;0.80;99.90
44170;DHT22;29836;52.286;9.576;2022-12-05T08:38:12;0.80;99.90
44170;DHT22;29836;52.286;9.576;2022-12-05T08:40:37;0.80;99.90
44170;DHT22;29836;52.286;9.576;2022-12-05T08:43:03;0.70;99.90
44170;DHT22;29836;52.286;9.576;2022-12-05T08:45:28;0.60;99.90
44170;DHT22;29836;52.286;9.576;2022-12-05T08:47:54;0.60;99.90
44170;DHT22;29836;52.286;9.576;2022-12-05T08:50:19;0.60;99.90
44170;DHT22;29836;52.286;9.576;2022-12-05T08:52:45;0.60;99.90
44170;DHT22;29836;52.286;9.576;2022-12-05T08:55:10;0.60;99.90
44170;DHT22;29836;52.286;9.576;2022-12-05T08:57:37;0.70;99.90
44170;DHT22;29836;52.286;9.576;2022-12-05T09:00:03;0.70;99.90
44170;DHT22;29836;52.286;9.576;2022-12-05T09:02:30;0.70;99.90
44170;DHT22;29836;52.286;9.576;2022-12-05T09:04:55;0.80;99.90
44170;DHT22;29836;52.286;9.576;2022-12-05T09:07:21;0.80;99.90
44170;DHT22;29836;52.286;9.576;2022-12-05T09:09:46;0.80;99.90
44170;DHT22;29836;52.286;9.576;2022-12-05T09:12:12;0.80;99.90
44170;DHT22;29836;52.286;9.576;2022-12-05T09:14:39;0.80;99.90
44170;DHT22;29836;52.286;9.576;2022-12-05T09:17:04;0.80;99.90
44170;DHT22;29836;52.286;9.576;2022-12-05T09:19:31;0.90;99.90
44170;DHT22;29836;52.286;9.576;2022-12-05T09:21:56;1.00;99.90
44170;DHT22;29836;52.286;9.576;2022-12-05T09:24:22;1.20;99.90
44170;DHT22;29836;52.286;9.576;2022-12-05T09:26:48;1.30;99.90
44170;DHT22;29836;52.286;9.576;2022-12-05T09:29:14;1.30;99.90
44170;DHT22;29836;52.286;9.576;2022-12-05T09:31:39;1.40;99.90
44170;DHT22;29836;52.286;9.576;2022-12-05T09:34:07;1.40;99.90
44170;DHT22;29836;52.286;9.576;2022-12-05T09:36:33;1.50;99.90
44170;DHT22;29836;52.286;9.576;2022-12-05T09:39:01;1.70;99.90
44170;DHT22;29836;52.286;9.576;2022-12-05T09:45:13;1.70;99.90
44170;DHT22;29836;52.286;9.576;2022-12-05T09:48:06;1.80;99.90
44170;DHT22;29836;52.286;9.576;2022-12-05T09:53:33;1.90;99.90
44170;DHT22;29836;52.286;9.576;2022-12-05T09:56:22;1.80;99.90
44170;DHT22;29836;52.286;9.576;2022-12-05T09:58:54;1.80;99.90
44170;DHT22;29836;52.286;9.576;2022-12-05T10:06:55;1.60;99.90
44170;DHT22;29836;52.286;9.576;2022-12-05T10:12:04;1.70;99.90
44170;DHT22;29836;52.286;9.576;2022-12-05T10:17:35;1.70;99.90
44170;DHT22;29836;52.286;9.576;2022-12-05T10:20:15;1.80;99.90
44170;DHT22;29836;52.286;9.576;2022-12-05T10:22:55;1.80;99.90
44170;DHT22;29836;52.286;9.576;2022-12-05T10:25:24;1.90;99.90
44170;DHT22;29836;52.286;9.576;2022-12-05T10:28:00;1.90;99.90
44170;DHT22;29836;52.286;9.576;2022-12-05T10:30:33;1.90;99.90
44170;DHT22;29836;52.286;9.576;2022-12-05T10:33:02;2.00;99.90
44170;DHT22;29836;52.286;9.576;2022-12-05T10:35:35;2.00;99.90
44170;DHT22;29836;52.286;9.576;2022-12-05T10:40:51;2.10;99.90
44170;DHT22;29836;52.286;9.576;2022-12-05T10:43:27;2.10;99.90
44170;DHT22;29836;52.286;9.576;2022-12-05T10:45:53;2.10;99.90
44170;DHT22;29836;52.286;9.576;2022-12-05T10:48:19;2.10;99.90
44170;DHT22;29836;52.286;9.576;2022-12-05T10:50:48;2.20;99.90
44170;DHT22;29836;52.286;9.576;2022-12-05T10:53:17;2.20;99.90
44170;DHT22;29836;52.286;9.576;2022-12-05T10:55:45;2.10;99.90
44170;DHT22;29836;52.286;9.576;2022-12-05T10:58:24;2.00;99.90
44170;DHT22;29836;52.286;9.576;2022-12-05T11:00:56;2.00;99.90
44170;DHT22;29836;52.286;9.576;2022-12-05T11:03:39;2.00;99.90
44170;DHT22;29836;52.286;9.576;2022-12-05T11:06:17;2.00;99.90
44170;DHT22;29836;52.286;9.576;2022-12-05T11:09:04;2.00;99.90
44170;DHT22;29836;52.286;9.576;2022-12-05T11:11:37;1.90;99.90
44170;DHT22;29836;52.286;9.576;2022-12-05T11:14:24;1.80;99.90
44170;DHT22;29836;52.286;9.576;2022-12-05T11:16:53;1.70;99.90
44170;DHT22;29836;52.286;9.576;2022-12-05T11:19:34;1.70;99.90
44170;DHT22;29836;52.286;9.576;2022-12-05T11:22:00;1.70;99.90
44170;DHT22;29836;52.286;9.576;2022-12-05T11:24:30;1.70;99.90
44170;DHT22;29836;52.286;9.576;2022-12-05T11:26:58;1.80;99.90
44170;DHT22;29836;52.286;9.576;2022-12-05T11:29:51;1.70;99.90
44170;DHT22;29836;52.286;9.576;2022-12-05T11:32:20;1.70;99.90
44170;DHT22;29836;52.286;9.576;2022-12-05T11:38:12;1.80;99.90
44170;DHT22;29836;52.286;9.576;2022-12-05T11:43:29;1.70;99.90
44170;DHT22;29836;52.286;9.576;2022-12-05T11:51:40;1.80;99.90
44170;DHT22;29836;52.286;9.576;2022-12-05T12:02:55;1.90;99.90
44170;DHT22;29836;52.286;9.576;2022-12-05T12:05:40;1.90;99.90
44170;DHT22;29836;52.286;9.576;2022-12-05T12:08:22;2.00;99.90
44170;DHT22;29836;52.286;9.576;2022-12-05T12:11:18;2.10;99.90
44170;DHT22;29836;52.286;9.576;2022-12-05T12:27:18;2.20;99.90
44170;DHT22;29836;52.286;9.576;2022-12-05T12:30:11;2.20;99.90
44170;DHT22;29836;52.286;9.576;2022-12-05T12:32:57;2.10;99.90
44170;DHT22;29836;52.286;9.576;2022-12-05T12:35:36;2.10;99.90
44170;DHT22;29836;52.286;9.576;2022-12-05T12:38:31;2.10;99.90
44170;DHT22;29836;52.286;9.576;2022-12-05T12:41:14;2.10;99.90
44170;DHT22;29836;52.286;9.576;2022-12-05T12:51:32;2.20;99.90
44170;DHT22;29836;52.286;9.576;2022-12-05T12:56:54;2.20;99.90
44170;DHT22;29836;52.286;9.576;2022-12-05T12:59:48;2.20;99.90
44170;DHT22;29836;52.286;9.576;2022-12-05T13:02:28;2.20;99.90
44170;DHT22;29836;52.286;9.576;2022-12-05T13:05:03;2.20;99.90
44170;DHT22;29836;52.286;9.576;2022-12-05T13:07:37;2.20;99.90
44170;DHT22;29836;52.286;9.576;2022-12-05T13:10:16;2.10;99.90
44170;DHT22;29836;52.286;9.576;2022-12-05T13:12:44;2.10;99.90
44170;DHT22;29836;52.286;9.576;2022-12-05T13:15:21;2.00;99.90
44170;DHT22;29836;52.286;9.576;2022-12-05T13:17:49;2.00;99.90
44170;DHT22;29836;52.286;9.576;2022-12-05T13:20:17;2.00;99.90
44170;DHT22;29836;52.286;9.576;2022-12-05T13:22:44;1.90;99.90
44170;DHT22;29836;52.286;9.576;2022-12-05T13:25:16;1.90;99.90
44170;DHT22;29836;52.286;9.576;2022-12-05T13:27:54;1.90;99.90
44170;DHT22;29836;52.286;9.576;2022-12-05T13:30:21;1.90;99.90
44170;DHT22;29836;52.286;9.576;2022-12-05T13:32:54;1.90;99.90
44170;DHT22;29836;52.286;9.576;2022-12-05T13:38:28;1.90;99.90
44170;DHT22;29836;52.286;9.576;2022-12-05T13:41:14;1.80;99.90
44170;DHT22;29836;52.286;9.576;2022-12-05T13:43:59;1.80;99.90
44170;DHT22;29836;52.286;9.576;2022-12-05T13:46:33;1.80;99.90
44170;DHT22;29836;52.286;9.576;2022-12-05T13:49:26;1.70;99.90
44170;DHT22;29836;52.286;9.576;2022-12-05T13:51:54;1.70;99.90
44170;DHT22;29836;52.286;9.576;2022-12-05T13:54:28;1.70;99.90
44170;DHT22;29836;52.286;9.576;2022-12-05T13:56:57;1.70;99.90
44170;DHT22;29836;52.286;9.576;2022-12-05T14:00:03;1.70;99.90
44170;DHT22;29836;52.286;9.576;2022-12-05T14:07:53;1.60;99.90
44170;DHT22;29836;52.286;9.576;2022-12-05T14:12:59;1.70;99.90
44170;DHT22;29836;52.286;9.576;2022-12-05T14:15:30;1.60;99.90
44170;DHT22;29836;52.286;9.576;2022-12-05T14:18:03;1.60;99.90
44170;DHT22;29836;52.286;9.576;2022-12-05T14:20:33;1.60;99.90
44170;DHT22;29836;52.286;9.576;2022-12-05T14:34:22;1.50;99.90
44170;DHT22;29836;52.286;9.576;2022-12-05T14:37:02;1.40;99.90
44170;DHT22;29836;52.286;9.576;2022-12-05T14:39:43;1.50;99.90
44170;DHT22;29836;52.286;9.576;2022-12-05T14:44:57;1.40;99.90
44170;DHT22;29836;52.286;9.576;2022-12-05T14:47:26;1.40;99.90
44170;DHT22;29836;52.286;9.576;2022-12-05T14:52:28;1.40;99.90
44170;DHT22;29836;52.286;9.576;2022-12-05T14:55:00;1.40;99.90
44170;DHT22;29836;52.286;9.576;2022-12-05T14:57:28;1.30;99.90
44170;DHT22;29836;52.286;9.576;2022-12-05T15:00:01;1.30;99.90
44170;DHT22;29836;52.286;9.576;2022-12-05T15:02:33;1.40;99.90
44170;DHT22;29836;52.286;9.576;2022-12-05T15:05:26;1.30;99.90
44170;DHT22;29836;52.286;9.576;2022-12-05T15:07:55;1.30;99.90
44170;DHT22;29836;52.286;9.576;2022-12-05T15:10:33;1.30;99.90
44170;DHT22;29836;52.286;9.576;2022-12-05T15:13:03;1.30;99.90
44170;DHT22;29836;52.286;9.576;2022-12-05T15:15:32;1.30;99.90
44170;DHT22;29836;52.286;9.576;2022-12-05T15:18:25;1.30;99.90
44170;DHT22;29836;52.286;9.576;2022-12-05T15:20:59;1.40;99.90
44170;DHT22;29836;52.286;9.576;2022-12-05T15:26:15;1.40;99.90
44170;DHT22;29836;52.286;9.576;2022-12-05T15:29:00;1.40;99.90
44170;DHT22;29836;52.286;9.576;2022-12-05T15:31:31;1.40;99.90
44170;DHT22;29836;52.286;9.576;2022-12-05T15:34:01;1.50;99.90
44170;DHT22;29836;52.286;9.576;2022-12-05T15:36:36;1.40;99.90
44170;DHT22;29836;52.286;9.576;2022-12-05T15:39:19;1.40;99.90
44170;DHT22;29836;52.286;9.576;2022-12-05T15:41:49;1.40;99.90
44170;DHT22;29836;52.286;9.576;2022-12-05T15:44:16;1.30;99.90
44170;DHT22;29836;52.286;9.576;2022-12-05T15:46:42;1.30;99.90
44170;DHT22;29836;52.286;9.576;2022-12-05T15:49:21;1.30;99.90
44170;DHT22;29836;52.286;9.576;2022-12-05T15:51:49;1.30;99.90
44170;DHT22;29836;52.286;9.576;2022-12-05T15:54:26;1.30;99.90
44170;DHT22;29836;52.286;9.576;2022-12-05T15:57:27;1.30;99.90
44170;DHT22;29836;52.286;9.576;2022-12-05T16:00:02;1.30;99.90
44170;DHT22;29836;52.286;9.576;2022-12-05T16:02:41;1.30;99.90
44170;DHT22;29836;52.286;9.576;2022-12-05T16:07:51;1.30;99.90
44170;DHT22;29836;52.286;9.576;2022-12-05T16:10:19;1.30;99.90
44170;DHT22;29836;52.286;9.576;2022-12-05T16:12:46;1.30;99.90
44170;DHT22;29836;52.286;9.576;2022-12-05T16:15:23;1.30;99.90
44170;DHT22;29836;52.286;9.576;2022-12-05T16:17:54;1.30;99.90
44170;DHT22;29836;52.286;9.576;2022-12-05T16:20:27;1.30;99.90
44170;DHT22;29836;52.286;9.576;2022-12-05T16:22:55;1.30;99.90
44170;DHT22;29836;52.286;9.576;2022-12-05T16:25:33;1.30;99.90
44170;DHT22;29836;52.286;9.576;2022-12-05T16:30:34;1.20;99.90
44170;DHT22;29836;52.286;9.576;2022-12-05T16:33:14;1.20;99.90
44170;DHT22;29836;52.286;9.576;2022-12-05T16:35:42;1.30;99.90
44170;DHT22;29836;52.286;9.576;2022-12-05T16:43:18;1.30;99.90
44170;DHT22;29836;52.286;9.576;2022-12-05T16:45:45;1.40;99.90
44170;DHT22;29836;52.286;9.576;2022-12-05T16:48:29;1.30;99.90
44170;DHT22;29836;52.286;9.576;2022-12-05T16:53:35;1.30;99.90
44170;DHT22;29836;52.286;9.576;2022-12-05T16:56:05;1.30;99.90
44170;DHT22;29836;52.286;9.576;2022-12-05T16:58:33;1.30;99.90
44170;DHT22;29836;52.286;9.576;2022-12-05T17:01:05;1.30;99.90
44170;DHT22;29836;52.286;9.576;2022-12-05T17:03:33;1.30;99.90
44170;DHT22;29836;52.286;9.576;2022-12-05T17:05:59;1.40;99.90
44170;DHT22;29836;52.286;9.576;2022-12-05T17:08:25;1.40;99.90
44170;DHT22;29836;52.286;9.576;2022-12-05T17:10:51;1.30;99.90
44170;DHT22;29836;52.286;9.576;2022-12-05T17:13:18;1.30;99.90
44170;DHT22;29836;52.286;9.576;2022-12-05T17:15:44;1.30;99.90
44170;DHT22;29836;52.286;9.576;2022-12-05T17:18:12;1.30;99.90
44170;DHT22;29836;52.286;9.576;2022-12-05T17:20:40;1.30;99.90
44170;DHT22;29836;52.286;9.576;2022-12-05T17:23:10;1.40;99.90
44170;DHT22;29836;52.286;9.576;2022-12-05T17:25:37;1.40;99.90
44170;DHT22;29836;52.286;9.576;2022-12-05T17:28:03;1.40;99.90
44170;DHT22;29836;52.286;9.576;2022-12-05T17:30:29;1.40;99.90
44170;DHT22;29836;52.286;9.576;2022-12-05T17:32:54;1.40;99.90
44170;DHT22;29836;52.286;9.576;2022-12-05T17:35:21;1.40;99.90
44170;DHT22;29836;52.286;9.576;2022-12-05T17:37:47;1.40;99.90
44170;DHT22;29836;52.286;9.576;2022-12-05T17:40:13;1.40;99.90
44170;DHT22;29836;52.286;9.576;2022-12-05T17:42:39;1.40;99.90
44170;DHT22;29836;52.286;9.576;2022-12-05T17:45:08;1.40;99.90
44170;DHT22;29836;52.286;9.576;2022-12-05T17:47:35;1.40;99.90
44170;DHT22;29836;52.286;9.576;2022-12-05T17:50:02;1.50;99.90
44170;DHT22;29836;52.286;9.576;2022-12-05T17:52:28;1.40;99.90
44170;DHT22;29836;52.286;9.576;2022-12-05T17:54:54;1.50;99.90
44170;DHT22;29836;52.286;9.576;2022-12-05T17:57:19;1.40;99.90
44170;DHT22;29836;52.286;9.576;2022-12-05T17:59:45;1.40;99.90
44170;DHT22;29836;52.286;9.576;2022-12-05T18:02:10;1.40;99.90
44170;DHT22;29836;52.286;9.576;2022-12-05T18:04:36;1.40;99.90
44170;DHT22;29836;52.286;9.576;2022-12-05T18:07:02;1.40;99.90
44170;DHT22;29836;52.286;9.576;2022-12-05T18:09:28;1.40;99.90
44170;DHT22;29836;52.286;9.576;2022-12-05T18:11:53;1.40;99.90
44170;DHT22;29836;52.286;9.576;2022-12-05T18:14:20;1.50;99.90
44170;DHT22;29836;52.286;9.576;2022-12-05T18:16:47;1.50;99.90
44170;DHT22;29836;52.286;9.576;2022-12-05T18:19:12;1.40;99.90
44170;DHT22;29836;52.286;9.576;2022-12-05T18:21:38;1.40;99.90
44170;DHT22;29836;52.286;9.576;2022-12-05T18:24:04;1.50;99.90